Golden Alaska — WDI2020 — position and weather

sailwx.info

Track history (hours):
 
Tides and Currents Weather Stations Pressure Air Temp Water Temp Dewpoint Dewpoint Depression Visibility Wind Speed Wind Dir Waves Ship Positions

Golden Alaska

Owner: GAS LLC, LLC, Seattle, WA. More information available from US FCC via Universal Licensing System and Coast Guard Vessel Documentation Center.

Last reported at 2018-May-27 21:30 UTC. Time now 2018-May-27 21:35 UTC.
Position N 47°38' W 122°23'.

Length 93 m; draft 7 m.

Type: Fishing. MMSI: 338132000.

Date/timePositionNaut miles runAvg speedWind from/ knotsBaromVisibWave heightAir tempDewpointWater temp
2018-May-27 21:30N 47°38' W 122°23'0 0.0
2018-May-27 21:00N 47°38' W 122°23'0 0.0
2018-May-27 20:30N 47°38' W 122°23'0 0.0
2018-May-27 20:00N 47°38' W 122°23'0 0.0
2018-May-27 19:30N 47°38' W 122°23'0 0.0
2018-May-27 19:00N 47°38' W 122°23'0 0.0
2018-May-27 18:30N 47°38' W 122°23'0 0.0
2018-May-27 18:00N 47°38' W 122°23'0 0.0
2018-May-27 17:30N 47°38' W 122°23'0 0.0
2018-May-27 17:00N 47°38' W 122°23'0 0.0
2018-May-27 16:30N 47°38' W 122°23'0 0.0
2018-May-27 16:00N 47°38' W 122°23'0 0.0
2018-May-27 15:30N 47°38' W 122°23'0 0.0
2018-May-27 15:00N 47°38' W 122°23'0 0.0
2018-May-27 14:30N 47°38' W 122°23'0 0.0
2018-May-27 14:00N 47°38' W 122°23'0 0.0
2018-May-27 13:30N 47°38' W 122°23'0 0.0
2018-May-27 13:00N 47°38' W 122°23'0 0.0
2018-May-27 12:30N 47°38' W 122°23'0 0.0
2018-May-27 12:00N 47°38' W 122°23'0 0.0
2018-May-27 11:30N 47°38' W 122°23'0 0.0
2018-May-27 11:00N 47°38' W 122°23'0 0.0
2018-May-27 10:30N 47°38' W 122°23'0 0.0
2018-May-27 10:00N 47°38' W 122°23'1 1.7
2018-May-27 09:30N 47°37' W 122°24'611.6
2018-May-27 09:00N 47°43' W 122°28'815.4
2018-May-27 08:30N 47°50' W 122°28'714.9
2018-May-27 08:00N 47°57' W 122°33'815.6
2018-May-27 07:29N 48°04' W 122°39'5014.3
2018-May-27 03:58N 48°13' W 123°53'613.7
2018-May-27 03:30N 48°15' W 124°02'713.8
2018-May-27 03:00N 48°18' W 124°12'713.7
2018-May-27 02:30N 48°22' W 124°21'713.5
2018-May-27 02:00N 48°25' W 124°29'713.2
2018-May-27 01:30N 48°27' W 124°39'713.3
2018-May-27 01:00N 48°29' W 124°49'713.2
2018-May-27 00:28N 48°28' W 124°59'613.8
2018-May-27 00:00N 48°22' W 125°04'70 2.5
2018-May-25 19:59N 47°12' W 124°57'711.4
2018-May-25 19:21N 47°05' W 124°55'411.2
2018-May-25 19:00N 47°02' W 124°53'611.0
2018-May-25 18:29N 46°56' W 124°52'511.0
2018-May-25 18:00N 46°51' W 124°51'611.1
2018-May-25 17:30N 46°45' W 124°51'5 9.8
2018-May-25 17:00N 46°40' W 124°51'1 2.5
2018-May-25 16:30N 46°39' W 124°50'1 2.2
2018-May-25 16:00N 46°40' W 124°48'1 1.6
2018-May-25 15:30N 46°39' W 124°48'2 4.4
2018-May-25 15:00N 46°38' W 124°45'5 9.6
2018-May-25 14:30N 46°42' W 124°50'3 6.2
2018-May-25 14:00N 46°45' W 124°51'3 5.2
2018-May-25 13:30N 46°47' W 124°53'6 8.6
2018-May-25 12:47N 46°52' W 124°58'2 7.1
2018-May-25 12:30N 46°54' W 124°59'3 6.1
2018-May-25 11:59N 46°56' W 125°02'1 1.2
2018-May-25 11:30N 46°56' W 125°02'1 2.7
2018-May-25 11:00N 46°55' W 125°01'1 2.1
2018-May-25 10:31N 46°54' W 125°00'2 3.8
2018-May-25 09:57N 46°56' W 125°01'2 3.7
2018-May-25 09:30N 46°58' W 125°01'3 6.5
2018-May-25 09:00N 47°01' W 125°02'1 2.8
2018-May-25 08:30N 46°60' W 125°03'2 2.8
2018-May-25 07:58N 46°58' W 125°02'2 5.3
2018-May-25 07:30N 47°01' W 125°02'5 7.0
2018-May-25 06:43N 47°06' W 125°04'2 8.5
2018-May-25 06:30N 47°08' W 125°04'5 7.3
2018-May-25 05:53N 47°12' W 125°02'2 4.6
2018-May-25 05:23N 47°10' W 125°00'3 8.3
2018-May-25 04:58N 47°07' W 125°00'2 1.8
2018-May-25 04:01N 47°08' W 124°58'3 8.5
2018-May-25 03:41N 47°11' W 124°58'2 8.1
2018-May-25 03:27N 47°10' W 125°00'1 0.6
2018-May-25 01:53N 47°10' W 125°02'3 4.3
2018-May-25 01:07N 47°07' W 125°04'2 4.1
2018-May-25 00:38N 47°07' W 125°07'1 6.2
2018-May-25 00:24N 47°05' W 125°06'4 6.6
2018-May-24 23:49N 47°04' W 125°00'2 2.1
2018-May-24 22:56N 47°06' W 125°00'4 6.7
2018-May-24 22:18N 47°09' W 125°04'2 4.4
2018-May-24 21:50N 47°09' W 125°01'4 2.8
2018-May-24 20:32N 47°06' W 124°59'0 6.8
2018-May-24 20:30N 47°05' W 124°59'3 3.9
2018-May-24 19:37N 47°02' W 124°59'2 2.4
2018-May-24 18:52N 47°04' W 124°58'1 1.5
2018-May-24 18:22N 47°04' W 124°57'2 0.8
2018-May-24 15:51N 47°02' W 124°57'3 2.1
2018-May-24 14:25N 47°05' W 124°60'1 1.3
2018-May-24 13:41N 47°05' W 124°58'8 0.9
2018-May-24 05:37N 47°08' W 125°08'11 4.2
2018-May-24 03:04N 47°07' W 124°52'0 2.4
2018-May-24 02:58N 47°07' W 124°53'5 4.6
2018-May-24 01:49N 47°10' W 124°59'6 3.5
2018-May-24 00:11N 47°05' W 125°02'1 5.1
2018-May-23 23:56N 47°05' W 125°01'5 9.5
2018-May-23 23:23N 47°10' W 124°59'1 3.9
2018-May-23 23:00N 47°11' W 124°59'1 2.8
2018-May-23 22:30N 47°11' W 124°57'2 3.2
2018-May-23 22:01N 47°11' W 124°60'3 6.5
2018-May-23 21:30N 47°08' W 125°00'4 8.4
2018-May-23 21:00N 47°12' W 125°01'3 5.4
2018-May-23 20:31N 47°11' W 124°57'2 3.1
2018-May-23 20:00N 47°13' W 124°59'1414.5
2018-May-23 19:01N 47°26' W 124°51'2 2.2
2018-May-23 18:14N 47°26' W 124°54'2 5.0
2018-May-23 17:54N 47°27' W 124°51'5 7.2
2018-May-23 17:14N 47°22' W 124°50'1 3.7
2018-May-23 17:00N 47°22' W 124°49'2 2.3
2018-May-23 16:15N 47°23' W 124°48'2 5.6
2018-May-23 15:50N 47°24' W 124°51'2 3.5
2018-May-23 15:17N 47°23' W 124°49'1 2.0
2018-May-23 14:58N 47°24' W 124°49'3 6.5
2018-May-23 14:30N 47°26' W 124°52'2 2.3
2018-May-23 13:43N 47°28' W 124°52'2 7.6
2018-May-23 13:28N 47°27' W 124°49'1 1.0
2018-May-23 12:05N 47°27' W 124°51'1 2.5
2018-May-23 11:41N 47°26' W 124°50'1 3.4
2018-May-23 11:16N 47°25' W 124°52'4 6.7
2018-May-23 10:37N 47°21' W 124°49'1 5.7
2018-May-23 10:30N 47°21' W 124°49'2 3.7
2018-May-23 10:00N 47°20' W 124°51'2 2.3
2018-May-23 09:03N 47°21' W 124°54'0 4.9
2018-May-23 09:00N 47°21' W 124°54'3 5.3
2018-May-23 08:30N 47°23' W 124°52'4 8.0
2018-May-23 08:00N 47°26' W 124°49'2 3.8
2018-May-23 07:30N 47°28' W 124°51'3 6.5
2018-May-23 06:59N 47°27' W 124°56'3 2.9
2018-May-23 05:55N 47°26' W 124°52'2 3.2
2018-May-23 05:18N 47°25' W 124°49'1 2.4
2018-May-23 04:58N 47°24' W 124°49'1 2.3
2018-May-23 04:24N 47°25' W 124°50'1 3.1
2018-May-23 04:00N 47°25' W 124°52'1 1.8
2018-May-23 03:29N 47°26' W 124°50'2 3.5
2018-May-23 02:47N 47°28' W 124°52'2 7.2
2018-May-23 02:30N 47°26' W 124°50'1 2.8
2018-May-23 02:00N 47°26' W 124°48'2 4.0
2018-May-23 01:29N 47°27' W 124°50'2 3.8
2018-May-23 01:00N 47°27' W 124°53'1 1.2
2018-May-23 00:10N 47°27' W 124°54'0 0.2
2018-May-22 23:34N 47°27' W 124°54'1 4.5
2018-May-22 23:16N 47°27' W 124°56'3 9.1
2018-May-22 22:59N 47°27' W 124°53'19 9.7
2018-May-22 21:05N 47°41' W 125°10'1 1.3
2018-May-22 20:29N 47°41' W 125°10'3 6.3
2018-May-22 20:00N 47°38' W 125°07'4 7.8
2018-May-22 19:30N 47°42' W 125°05'1 1.9
2018-May-22 18:56N 47°41' W 125°06'1 1.7
2018-May-22 18:26N 47°42' W 125°06'1 1.8
2018-May-22 17:54N 47°41' W 125°05'4 3.5
2018-May-22 16:46N 47°37' W 125°06'1 3.9
2018-May-22 16:24N 47°38' W 125°08'3 6.3
2018-May-22 15:57N 47°35' W 125°05'1 0.8
2018-May-22 15:07N 47°35' W 125°06'1 7.1
2018-May-22 14:56N 47°35' W 125°04'6 3.1
2018-May-22 12:56N 47°41' W 125°08'10 3.3
2018-May-22 09:48N 47°33' W 125°18'2 6.1
2018-May-22 09:30N 47°33' W 125°20'3 6.1
2018-May-22 09:00N 47°35' W 125°23'9 5.8
2018-May-22 07:31N 47°37' W 125°10'  
Track history (hours):
 
Tides and Currents Weather Stations Pressure Air Temp Water Temp Dewpoint Dewpoint Depression Visibility Wind Speed Wind Dir Waves Ship Positions

Golden Alaska

Owner: GAS LLC, LLC, Seattle, WA. More information available from US FCC via Universal Licensing System and Coast Guard Vessel Documentation Center.

Last reported at 2018-May-27 21:30 UTC. Time now 2018-May-27 21:35 UTC.
Position N 47°38' W 122°23'.

Length 93 m; draft 7 m.

Type: Fishing. MMSI: 338132000.

Date/timePositionNaut miles runAvg speedWind from/ knotsBaromVisibWave heightAir tempDewpointWater temp
2018-May-27 21:30N 47°38' W 122°23'0 0.0
2018-May-27 21:00N 47°38' W 122°23'0 0.0
2018-May-27 20:30N 47°38' W 122°23'0 0.0
2018-May-27 20:00N 47°38' W 122°23'0 0.0
2018-May-27 19:30N 47°38' W 122°23'0 0.0
2018-May-27 19:00N 47°38' W 122°23'0 0.0
2018-May-27 18:30N 47°38' W 122°23'0 0.0
2018-May-27 18:00N 47°38' W 122°23'0 0.0
2018-May-27 17:30N 47°38' W 122°23'0 0.0
2018-May-27 17:00N 47°38' W 122°23'0 0.0
2018-May-27 16:30N 47°38' W 122°23'0 0.0
2018-May-27 16:00N 47°38' W 122°23'0 0.0
2018-May-27 15:30N 47°38' W 122°23'0 0.0
2018-May-27 15:00N 47°38' W 122°23'0 0.0
2018-May-27 14:30N 47°38' W 122°23'0 0.0
2018-May-27 14:00N 47°38' W 122°23'0 0.0
2018-May-27 13:30N 47°38' W 122°23'0 0.0
2018-May-27 13:00N 47°38' W 122°23'0 0.0
2018-May-27 12:30N 47°38' W 122°23'0 0.0
2018-May-27 12:00N 47°38' W 122°23'0 0.0
2018-May-27 11:30N 47°38' W 122°23'0 0.0
2018-May-27 11:00N 47°38' W 122°23'0 0.0
2018-May-27 10:30N 47°38' W 122°23'0 0.0
2018-May-27 10:00N 47°38' W 122°23'1 1.7
2018-May-27 09:30N 47°37' W 122°24'611.6
2018-May-27 09:00N 47°43' W 122°28'815.4
2018-May-27 08:30N 47°50' W 122°28'714.9
2018-May-27 08:00N 47°57' W 122°33'815.6
2018-May-27 07:29N 48°04' W 122°39'5014.3
2018-May-27 03:58N 48°13' W 123°53'613.7
2018-May-27 03:30N 48°15' W 124°02'713.8
2018-May-27 03:00N 48°18' W 124°12'713.7
2018-May-27 02:30N 48°22' W 124°21'713.5
2018-May-27 02:00N 48°25' W 124°29'713.2
2018-May-27 01:30N 48°27' W 124°39'713.3
2018-May-27 01:00N 48°29' W 124°49'713.2
2018-May-27 00:28N 48°28' W 124°59'613.8
2018-May-27 00:00N 48°22' W 125°04'70 2.5
2018-May-25 19:59N 47°12' W 124°57'711.4
2018-May-25 19:21N 47°05' W 124°55'411.2
2018-May-25 19:00N 47°02' W 124°53'611.0
2018-May-25 18:29N 46°56' W 124°52'511.0
2018-May-25 18:00N 46°51' W 124°51'611.1
2018-May-25 17:30N 46°45' W 124°51'5 9.8
2018-May-25 17:00N 46°40' W 124°51'1 2.5
2018-May-25 16:30N 46°39' W 124°50'1 2.2
2018-May-25 16:00N 46°40' W 124°48'1 1.6
2018-May-25 15:30N 46°39' W 124°48'2 4.4
2018-May-25 15:00N 46°38' W 124°45'5 9.6
2018-May-25 14:30N 46°42' W 124°50'3 6.2
2018-May-25 14:00N 46°45' W 124°51'3 5.2
2018-May-25 13:30N 46°47' W 124°53'6 8.6
2018-May-25 12:47N 46°52' W 124°58'2 7.1
2018-May-25 12:30N 46°54' W 124°59'3 6.1
2018-May-25 11:59N 46°56' W 125°02'1 1.2
2018-May-25 11:30N 46°56' W 125°02'1 2.7
2018-May-25 11:00N 46°55' W 125°01'1 2.1
2018-May-25 10:31N 46°54' W 125°00'2 3.8
2018-May-25 09:57N 46°56' W 125°01'2 3.7
2018-May-25 09:30N 46°58' W 125°01'3 6.5
2018-May-25 09:00N 47°01' W 125°02'1 2.8
2018-May-25 08:30N 46°60' W 125°03'2 2.8
2018-May-25 07:58N 46°58' W 125°02'2 5.3
2018-May-25 07:30N 47°01' W 125°02'5 7.0
2018-May-25 06:43N 47°06' W 125°04'2 8.5
2018-May-25 06:30N 47°08' W 125°04'5 7.3
2018-May-25 05:53N 47°12' W 125°02'2 4.6
2018-May-25 05:23N 47°10' W 125°00'3 8.3
2018-May-25 04:58N 47°07' W 125°00'2 1.8
2018-May-25 04:01N 47°08' W 124°58'3 8.5
2018-May-25 03:41N 47°11' W 124°58'2 8.1
2018-May-25 03:27N 47°10' W 125°00'1 0.6
2018-May-25 01:53N 47°10' W 125°02'3 4.3
2018-May-25 01:07N 47°07' W 125°04'2 4.1
2018-May-25 00:38N 47°07' W 125°07'1 6.2
2018-May-25 00:24N 47°05' W 125°06'4 6.6
2018-May-24 23:49N 47°04' W 125°00'2 2.1
2018-May-24 22:56N 47°06' W 125°00'4 6.7
2018-May-24 22:18N 47°09' W 125°04'2 4.4
2018-May-24 21:50N 47°09' W 125°01'4 2.8
2018-May-24 20:32N 47°06' W 124°59'0 6.8
2018-May-24 20:30N 47°05' W 124°59'3 3.9
2018-May-24 19:37N 47°02' W 124°59'2 2.4
2018-May-24 18:52N 47°04' W 124°58'1 1.5
2018-May-24 18:22N 47°04' W 124°57'2 0.8
2018-May-24 15:51N 47°02' W 124°57'3 2.1
2018-May-24 14:25N 47°05' W 124°60'1 1.3
2018-May-24 13:41N 47°05' W 124°58'8 0.9
2018-May-24 05:37N 47°08' W 125°08'11 4.2
2018-May-24 03:04N 47°07' W 124°52'0 2.4
2018-May-24 02:58N 47°07' W 124°53'5 4.6
2018-May-24 01:49N 47°10' W 124°59'6 3.5
2018-May-24 00:11N 47°05' W 125°02'1 5.1
2018-May-23 23:56N 47°05' W 125°01'5 9.5
2018-May-23 23:23N 47°10' W 124°59'1 3.9
2018-May-23 23:00N 47°11' W 124°59'1 2.8
2018-May-23 22:30N 47°11' W 124°57'2 3.2
2018-May-23 22:01N 47°11' W 124°60'3 6.5
2018-May-23 21:30N 47°08' W 125°00'4 8.4
2018-May-23 21:00N 47°12' W 125°01'3 5.4
2018-May-23 20:31N 47°11' W 124°57'2 3.1
2018-May-23 20:00N 47°13' W 124°59'1414.5
2018-May-23 19:01N 47°26' W 124°51'2 2.2
2018-May-23 18:14N 47°26' W 124°54'2 5.0
2018-May-23 17:54N 47°27' W 124°51'5 7.2
2018-May-23 17:14N 47°22' W 124°50'1 3.7
2018-May-23 17:00N 47°22' W 124°49'2 2.3
2018-May-23 16:15N 47°23' W 124°48'2 5.6
2018-May-23 15:50N 47°24' W 124°51'2 3.5
2018-May-23 15:17N 47°23' W 124°49'1 2.0
2018-May-23 14:58N 47°24' W 124°49'3 6.5
2018-May-23 14:30N 47°26' W 124°52'2 2.3
2018-May-23 13:43N 47°28' W 124°52'2 7.6
2018-May-23 13:28N 47°27' W 124°49'1 1.0
2018-May-23 12:05N 47°27' W 124°51'1 2.5
2018-May-23 11:41N 47°26' W 124°50'1 3.4
2018-May-23 11:16N 47°25' W 124°52'4 6.7
2018-May-23 10:37N 47°21' W 124°49'1 5.7
2018-May-23 10:30N 47°21' W 124°49'2 3.7
2018-May-23 10:00N 47°20' W 124°51'2 2.3
2018-May-23 09:03N 47°21' W 124°54'0 4.9
2018-May-23 09:00N 47°21' W 124°54'3 5.3
2018-May-23 08:30N 47°23' W 124°52'4 8.0
2018-May-23 08:00N 47°26' W 124°49'2 3.8
2018-May-23 07:30N 47°28' W 124°51'3 6.5
2018-May-23 06:59N 47°27' W 124°56'3 2.9
2018-May-23 05:55N 47°26' W 124°52'2 3.2
2018-May-23 05:18N 47°25' W 124°49'1 2.4
2018-May-23 04:58N 47°24' W 124°49'1 2.3
2018-May-23 04:24N 47°25' W 124°50'1 3.1
2018-May-23 04:00N 47°25' W 124°52'1 1.8
2018-May-23 03:29N 47°26' W 124°50'2 3.5
2018-May-23 02:47N 47°28' W 124°52'2 7.2
2018-May-23 02:30N 47°26' W 124°50'1 2.8
2018-May-23 02:00N 47°26' W 124°48'2 4.0
2018-May-23 01:29N 47°27' W 124°50'2 3.8
2018-May-23 01:00N 47°27' W 124°53'1 1.2
2018-May-23 00:10N 47°27' W 124°54'0 0.2
2018-May-22 23:34N 47°27' W 124°54'1 4.5
2018-May-22 23:16N 47°27' W 124°56'3 9.1
2018-May-22 22:59N 47°27' W 124°53'19 9.7
2018-May-22 21:05N 47°41' W 125°10'1 1.3
2018-May-22 20:29N 47°41' W 125°10'3 6.3
2018-May-22 20:00N 47°38' W 125°07'4 7.8
2018-May-22 19:30N 47°42' W 125°05'1 1.9
2018-May-22 18:56N 47°41' W 125°06'1 1.7
2018-May-22 18:26N 47°42' W 125°06'1 1.8
2018-May-22 17:54N 47°41' W 125°05'4 3.5
2018-May-22 16:46N 47°37' W 125°06'1 3.9
2018-May-22 16:24N 47°38' W 125°08'3 6.3
2018-May-22 15:57N 47°35' W 125°05'1 0.8
2018-May-22 15:07N 47°35' W 125°06'1 7.1
2018-May-22 14:56N 47°35' W 125°04'6 3.1
2018-May-22 12:56N 47°41' W 125°08'10 3.3
2018-May-22 09:48N 47°33' W 125°18'2 6.1
2018-May-22 09:30N 47°33' W 125°20'3 6.1
2018-May-22 09:00N 47°35' W 125°23'9 5.8
2018-May-22 07:31N 47°37' W 125°10'  

Dump ship's entire track history